Haskell, Oklahoma
Current Conditions -  °F | °C
As of 3:35 PM on Monday 24 Nov 2014 (Local Time) from KOKM Reporting Station
Clear Clear  
Wind Chill: 56°   Ceiling: Unl
Heat Index: 56°   Visibility: 10mi
Dew Point: 23°   Wind: 15mph
Humidity: 27%   Direction: 300°WNW
Pressure: 29.96"   Gusts: 30mph
Location:  35.82°N, 95.67°W
Report Text: KOKM 242135Z AUTO 30013G26KT 10SM CLR 14/M05 A2996 RMK AO2 T01361052
Loading
Personal Weather Stations






























Interactive Weather Map New forecast layout! Learn more

10-Day Weather Forecast

Advertisements
Track Severe Weather on mobile